Terminal Aerodrome Forecast
Issued by NWS Springfield, MO

Home | Current Version | Previous Version | Text Only | Print | Product List | Glossary On
Versions: 1 2 3 4 5 6 7 8 9 10 11 12 13 14 15
000
FTUS43 KSGF 191754 CCB
TAFSGF
TAF COR
KSGF 191754Z 1918/2018 19010KT P6SM FEW050 SCT250
     FM192300 16012KT P6SM SCT250
     FM200600 16015G20KT P6SM SCT250 WS015/21040KT
     FM201300 19013G21KT P6SM SCT050=

USA.gov is the U.S. government's official web portal to all federal, state and local government web resources and services.